sensor_id;sensor_type;location;lat;lon;timestamp;temperature;humidity
71291;DHT22;59073;51.994;4.448;2023-04-15T00:00:27;10.82;64.10
71291;DHT22;59073;51.994;4.448;2023-04-15T00:02:53;10.72;63.37
71291;DHT22;59073;51.994;4.448;2023-04-15T00:05:19;10.83;62.07
71291;DHT22;59073;51.994;4.448;2023-04-15T00:07:45;10.80;62.03
71291;DHT22;59073;51.994;4.448;2023-04-15T00:10:11;10.77;63.41
71291;DHT22;59073;51.994;4.448;2023-04-15T00:12:37;10.75;63.57
71291;DHT22;59073;51.994;4.448;2023-04-15T00:15:02;10.69;63.85
71291;DHT22;59073;51.994;4.448;2023-04-15T00:17:28;10.62;64.23
71291;DHT22;59073;51.994;4.448;2023-04-15T00:19:53;10.70;63.05
71291;DHT22;59073;51.994;4.448;2023-04-15T00:22:19;10.75;62.72
71291;DHT22;59073;51.994;4.448;2023-04-15T00:24:44;10.66;62.86
71291;DHT22;59073;51.994;4.448;2023-04-15T00:27:10;10.86;63.16
71291;DHT22;59073;51.994;4.448;2023-04-15T00:29:35;11.07;62.37
71291;DHT22;59073;51.994;4.448;2023-04-15T00:32:01;10.92;63.26
71291;DHT22;59073;51.994;4.448;2023-04-15T00:34:27;10.84;63.24
71291;DHT22;59073;51.994;4.448;2023-04-15T00:36:53;10.62;64.36
71291;DHT22;59073;51.994;4.448;2023-04-15T00:39:19;10.49;64.39
71291;DHT22;59073;51.994;4.448;2023-04-15T00:41:45;10.58;64.68
71291;DHT22;59073;51.994;4.448;2023-04-15T00:44:10;10.73;63.53
71291;DHT22;59073;51.994;4.448;2023-04-15T00:46:37;10.82;62.98
71291;DHT22;59073;51.994;4.448;2023-04-15T00:49:04;10.84;62.45
71291;DHT22;59073;51.994;4.448;2023-04-15T00:51:31;10.70;62.15
71291;DHT22;59073;51.994;4.448;2023-04-15T00:54:05;10.52;65.16
71291;DHT22;59073;51.994;4.448;2023-04-15T00:56:34;10.59;63.72
71291;DHT22;59073;51.994;4.448;2023-04-15T00:59:00;10.48;65.03
71291;DHT22;59073;51.994;4.448;2023-04-15T01:01:27;10.24;63.96
71291;DHT22;59073;51.994;4.448;2023-04-15T01:03:55;10.28;64.21
71291;DHT22;59073;51.994;4.448;2023-04-15T01:06:20;10.17;64.68
71291;DHT22;59073;51.994;4.448;2023-04-15T01:08:46;10.01;64.21
71291;DHT22;59073;51.994;4.448;2023-04-15T01:11:13;10.04;64.26
71291;DHT22;59073;51.994;4.448;2023-04-15T01:13:39;10.05;64.23
71291;DHT22;59073;51.994;4.448;2023-04-15T01:16:06;10.05;65.06
71291;DHT22;59073;51.994;4.448;2023-04-15T01:18:33;10.10;64.25
71291;DHT22;59073;51.994;4.448;2023-04-15T01:21:00;10.34;65.39
71291;DHT22;59073;51.994;4.448;2023-04-15T01:23:26;10.35;64.08
71291;DHT22;59073;51.994;4.448;2023-04-15T01:25:53;10.49;63.96
71291;DHT22;59073;51.994;4.448;2023-04-15T01:28:19;10.42;63.98
71291;DHT22;59073;51.994;4.448;2023-04-15T01:30:45;10.39;64.25
71291;DHT22;59073;51.994;4.448;2023-04-15T01:33:10;10.32;64.16
71291;DHT22;59073;51.994;4.448;2023-04-15T01:35:36;10.31;64.00
71291;DHT22;59073;51.994;4.448;2023-04-15T01:38:07;10.24;64.64
71291;DHT22;59073;51.994;4.448;2023-04-15T01:40:33;10.18;64.88
71291;DHT22;59073;51.994;4.448;2023-04-15T01:43:00;10.14;64.84
71291;DHT22;59073;51.994;4.448;2023-04-15T01:45:26;10.18;64.65
71291;DHT22;59073;51.994;4.448;2023-04-15T01:47:52;10.10;65.14
71291;DHT22;59073;51.994;4.448;2023-04-15T01:50:18;10.02;65.71
71291;DHT22;59073;51.994;4.448;2023-04-15T01:52:45;9.81;66.43
71291;DHT22;59073;51.994;4.448;2023-04-15T01:55:11;9.76;67.16
71291;DHT22;59073;51.994;4.448;2023-04-15T01:57:36;9.69;66.81
71291;DHT22;59073;51.994;4.448;2023-04-15T02:00:02;9.44;68.55
71291;DHT22;59073;51.994;4.448;2023-04-15T02:02:28;9.57;66.67
71291;DHT22;59073;51.994;4.448;2023-04-15T02:04:53;9.76;66.24
71291;DHT22;59073;51.994;4.448;2023-04-15T02:07:18;9.80;66.49
71291;DHT22;59073;51.994;4.448;2023-04-15T02:09:44;9.79;66.37
71291;DHT22;59073;51.994;4.448;2023-04-15T02:12:10;9.70;66.79
71291;DHT22;59073;51.994;4.448;2023-04-15T02:14:35;9.67;66.98
71291;DHT22;59073;51.994;4.448;2023-04-15T02:17:01;9.64;67.29
71291;DHT22;59073;51.994;4.448;2023-04-15T02:19:32;9.64;67.44
71291;DHT22;59073;51.994;4.448;2023-04-15T02:21:58;9.61;67.70
71291;DHT22;59073;51.994;4.448;2023-04-15T02:24:24;9.60;67.79
71291;DHT22;59073;51.994;4.448;2023-04-15T02:26:49;9.42;68.31
71291;DHT22;59073;51.994;4.448;2023-04-15T02:29:14;9.57;67.81
71291;DHT22;59073;51.994;4.448;2023-04-15T02:31:40;9.66;67.58
71291;DHT22;59073;51.994;4.448;2023-04-15T02:34:06;9.69;67.60
71291;DHT22;59073;51.994;4.448;2023-04-15T02:36:32;9.63;67.63
71291;DHT22;59073;51.994;4.448;2023-04-15T02:38:59;9.60;67.80
71291;DHT22;59073;51.994;4.448;2023-04-15T02:41:24;9.51;68.38
71291;DHT22;59073;51.994;4.448;2023-04-15T02:43:52;9.51;68.26
71291;DHT22;59073;51.994;4.448;2023-04-15T02:46:17;9.47;68.66
71291;DHT22;59073;51.994;4.448;2023-04-15T02:48:42;9.43;69.25
71291;DHT22;59073;51.994;4.448;2023-04-15T02:51:29;9.26;69.59
71291;DHT22;59073;51.994;4.448;2023-04-15T02:53:58;9.29;69.72
71291;DHT22;59073;51.994;4.448;2023-04-15T02:56:23;9.33;69.62
71291;DHT22;59073;51.994;4.448;2023-04-15T02:58:48;9.28;69.68
71291;DHT22;59073;51.994;4.448;2023-04-15T03:01:14;9.19;69.83
71291;DHT22;59073;51.994;4.448;2023-04-15T03:03:40;9.05;70.79
71291;DHT22;59073;51.994;4.448;2023-04-15T03:06:06;8.98;70.59
71291;DHT22;59073;51.994;4.448;2023-04-15T03:08:33;8.87;70.78
71291;DHT22;59073;51.994;4.448;2023-04-15T03:10:58;8.74;71.20
71291;DHT22;59073;51.994;4.448;2023-04-15T03:13:25;8.70;71.34
71291;DHT22;59073;51.994;4.448;2023-04-15T03:15:50;8.67;71.39
71291;DHT22;59073;51.994;4.448;2023-04-15T03:18:16;8.51;72.62
71291;DHT22;59073;51.994;4.448;2023-04-15T03:20:41;8.40;72.94
71291;DHT22;59073;51.994;4.448;2023-04-15T03:23:07;8.32;73.17
71291;DHT22;59073;51.994;4.448;2023-04-15T03:25:32;8.37;73.10
71291;DHT22;59073;51.994;4.448;2023-04-15T03:27:58;8.44;72.72
71291;DHT22;59073;51.994;4.448;2023-04-15T03:30:24;8.50;72.19
71291;DHT22;59073;51.994;4.448;2023-04-15T03:32:49;8.56;71.93
71291;DHT22;59073;51.994;4.448;2023-04-15T03:35:15;8.60;71.61
71291;DHT22;59073;51.994;4.448;2023-04-15T03:37:41;8.56;71.85
71291;DHT22;59073;51.994;4.448;2023-04-15T03:40:07;8.44;71.99
71291;DHT22;59073;51.994;4.448;2023-04-15T03:42:32;8.30;72.68
71291;DHT22;59073;51.994;4.448;2023-04-15T03:44:58;8.27;72.87
71291;DHT22;59073;51.994;4.448;2023-04-15T03:47:23;8.13;73.13
71291;DHT22;59073;51.994;4.448;2023-04-15T03:49:49;8.12;73.10
71291;DHT22;59073;51.994;4.448;2023-04-15T03:52:14;8.12;73.24
71291;DHT22;59073;51.994;4.448;2023-04-15T03:54:40;8.00;73.61
71291;DHT22;59073;51.994;4.448;2023-04-15T03:57:05;8.02;73.83
71291;DHT22;59073;51.994;4.448;2023-04-15T03:59:31;8.03;73.95
71291;DHT22;59073;51.994;4.448;2023-04-15T04:01:56;7.95;74.02
71291;DHT22;59073;51.994;4.448;2023-04-15T04:04:21;7.98;74.03
71291;DHT22;59073;51.994;4.448;2023-04-15T04:06:47;7.90;74.24
71291;DHT22;59073;51.994;4.448;2023-04-15T04:09:12;7.96;74.19
71291;DHT22;59073;51.994;4.448;2023-04-15T04:11:38;7.88;74.49
71291;DHT22;59073;51.994;4.448;2023-04-15T04:14:03;7.92;74.35
71291;DHT22;59073;51.994;4.448;2023-04-15T04:16:29;7.92;74.36
71291;DHT22;59073;51.994;4.448;2023-04-15T04:18:54;7.93;74.50
71291;DHT22;59073;51.994;4.448;2023-04-15T04:21:20;7.93;74.44
71291;DHT22;59073;51.994;4.448;2023-04-15T04:23:46;7.92;74.66
71291;DHT22;59073;51.994;4.448;2023-04-15T04:26:11;7.99;74.51
71291;DHT22;59073;51.994;4.448;2023-04-15T04:28:36;8.00;74.64
71291;DHT22;59073;51.994;4.448;2023-04-15T04:31:05;7.95;75.01
71291;DHT22;59073;51.994;4.448;2023-04-15T04:33:31;7.86;75.10
71291;DHT22;59073;51.994;4.448;2023-04-15T04:35:56;7.89;74.99
71291;DHT22;59073;51.994;4.448;2023-04-15T04:38:21;7.82;75.46
71291;DHT22;59073;51.994;4.448;2023-04-15T04:40:47;7.82;75.91
71291;DHT22;59073;51.994;4.448;2023-04-15T04:43:12;7.74;76.54
71291;DHT22;59073;51.994;4.448;2023-04-15T04:45:39;7.72;76.26
71291;DHT22;59073;51.994;4.448;2023-04-15T04:48:04;7.75;75.99
71291;DHT22;59073;51.994;4.448;2023-04-15T04:50:31;7.81;76.39
71291;DHT22;59073;51.994;4.448;2023-04-15T04:52:57;7.82;76.05
71291;DHT22;59073;51.994;4.448;2023-04-15T04:55:22;7.79;76.30
71291;DHT22;59073;51.994;4.448;2023-04-15T04:57:48;7.88;76.30
71291;DHT22;59073;51.994;4.448;2023-04-15T05:00:13;7.85;76.39
71291;DHT22;59073;51.994;4.448;2023-04-15T05:02:39;7.99;76.26
71291;DHT22;59073;51.994;4.448;2023-04-15T05:05:06;8.03;76.00
71291;DHT22;59073;51.994;4.448;2023-04-15T05:07:32;8.17;75.73
71291;DHT22;59073;51.994;4.448;2023-04-15T05:09:57;8.39;74.85
71291;DHT22;59073;51.994;4.448;2023-04-15T05:12:23;8.19;75.56
71291;DHT22;59073;51.994;4.448;2023-04-15T05:14:48;8.13;75.63
71291;DHT22;59073;51.994;4.448;2023-04-15T05:17:13;8.39;75.04
71291;DHT22;59073;51.994;4.448;2023-04-15T05:19:39;8.75;73.86
71291;DHT22;59073;51.994;4.448;2023-04-15T05:22:05;9.30;72.28
71291;DHT22;59073;51.994;4.448;2023-04-15T05:24:30;9.33;71.53
71291;DHT22;59073;51.994;4.448;2023-04-15T05:26:55;9.80;70.65
71291;DHT22;59073;51.994;4.448;2023-04-15T05:29:21;10.00;70.17
71291;DHT22;59073;51.994;4.448;2023-04-15T05:31:46;10.14;69.13
71291;DHT22;59073;51.994;4.448;2023-04-15T05:34:12;10.34;68.68
71291;DHT22;59073;51.994;4.448;2023-04-15T05:36:40;10.65;68.17
71291;DHT22;59073;51.994;4.448;2023-04-15T05:39:05;10.80;67.38
71291;DHT22;59073;51.994;4.448;2023-04-15T05:41:31;10.75;67.50
71291;DHT22;59073;51.994;4.448;2023-04-15T05:43:56;10.90;67.02
71291;DHT22;59073;51.994;4.448;2023-04-15T05:46:22;10.75;67.43
71291;DHT22;59073;51.994;4.448;2023-04-15T05:48:47;10.88;67.17
71291;DHT22;59073;51.994;4.448;2023-04-15T05:51:13;11.09;66.56
71291;DHT22;59073;51.994;4.448;2023-04-15T05:53:39;11.41;65.71
71291;DHT22;59073;51.994;4.448;2023-04-15T05:56:06;11.75;65.24
71291;DHT22;59073;51.994;4.448;2023-04-15T05:58:31;12.06;64.06
71291;DHT22;59073;51.994;4.448;2023-04-15T06:00:57;12.33;63.12
71291;DHT22;59073;51.994;4.448;2023-04-15T06:03:22;12.65;62.64
71291;DHT22;59073;51.994;4.448;2023-04-15T06:05:48;13.07;60.93
71291;DHT22;59073;51.994;4.448;2023-04-15T06:08:14;12.97;60.68
71291;DHT22;59073;51.994;4.448;2023-04-15T06:10:39;12.70;62.16
71291;DHT22;59073;51.994;4.448;2023-04-15T06:13:05;13.31;60.78
71291;DHT22;59073;51.994;4.448;2023-04-15T06:15:31;13.79;59.04
71291;DHT22;59073;51.994;4.448;2023-04-15T06:17:56;14.06;58.57
71291;DHT22;59073;51.994;4.448;2023-04-15T06:20:22;13.94;57.96
71291;DHT22;59073;51.994;4.448;2023-04-15T06:22:48;14.16;58.15
71291;DHT22;59073;51.994;4.448;2023-04-15T06:25:13;14.30;56.89
71291;DHT22;59073;51.994;4.448;2023-04-15T06:27:39;13.25;59.57
71291;DHT22;59073;51.994;4.448;2023-04-15T06:30:05;13.96;59.84
71291;DHT22;59073;51.994;4.448;2023-04-15T06:32:31;14.88;57.27
71291;DHT22;59073;51.994;4.448;2023-04-15T06:34:57;14.88;57.09
71291;DHT22;59073;51.994;4.448;2023-04-15T06:37:22;14.72;56.89
71291;DHT22;59073;51.994;4.448;2023-04-15T06:39:47;14.10;58.63
71291;DHT22;59073;51.994;4.448;2023-04-15T06:42:13;13.83;58.94
71291;DHT22;59073;51.994;4.448;2023-04-15T06:44:38;13.39;60.68
71291;DHT22;59073;51.994;4.448;2023-04-15T06:47:04;13.69;61.48
71291;DHT22;59073;51.994;4.448;2023-04-15T06:49:30;12.65;63.61
71291;DHT22;59073;51.994;4.448;2023-04-15T06:51:56;11.83;65.64
71291;DHT22;59073;51.994;4.448;2023-04-15T06:54:21;12.46;64.52
71291;DHT22;59073;51.994;4.448;2023-04-15T06:56:47;13.08;62.18
71291;DHT22;59073;51.994;4.448;2023-04-15T06:59:12;13.41;62.93
71291;DHT22;59073;51.994;4.448;2023-04-15T07:01:39;13.31;62.19
71291;DHT22;59073;51.994;4.448;2023-04-15T07:04:05;13.31;62.35
71291;DHT22;59073;51.994;4.448;2023-04-15T07:06:30;12.83;64.28
71291;DHT22;59073;51.994;4.448;2023-04-15T07:08:57;12.81;64.02
71291;DHT22;59073;51.994;4.448;2023-04-15T07:11:22;12.59;64.95
71291;DHT22;59073;51.994;4.448;2023-04-15T07:13:48;12.06;67.34
71291;DHT22;59073;51.994;4.448;2023-04-15T07:16:13;11.82;69.31
71291;DHT22;59073;51.994;4.448;2023-04-15T07:18:38;12.13;68.13
71291;DHT22;59073;51.994;4.448;2023-04-15T07:21:04;12.02;68.89
71291;DHT22;59073;51.994;4.448;2023-04-15T07:23:29;12.18;67.68
71291;DHT22;59073;51.994;4.448;2023-04-15T07:25:55;12.29;66.53
71291;DHT22;59073;51.994;4.448;2023-04-15T07:28:21;12.19;69.00
71291;DHT22;59073;51.994;4.448;2023-04-15T07:30:47;12.37;67.37
71291;DHT22;59073;51.994;4.448;2023-04-15T07:33:13;12.51;67.25
71291;DHT22;59073;51.994;4.448;2023-04-15T07:35:38;12.41;66.38
71291;DHT22;59073;51.994;4.448;2023-04-15T07:38:03;11.98;67.61
71291;DHT22;59073;51.994;4.448;2023-04-15T07:40:29;12.33;69.43
71291;DHT22;59073;51.994;4.448;2023-04-15T07:42:55;12.02;66.70
71291;DHT22;59073;51.994;4.448;2023-04-15T07:45:22;11.72;68.23
71291;DHT22;59073;51.994;4.448;2023-04-15T07:47:48;11.89;67.86
71291;DHT22;59073;51.994;4.448;2023-04-15T07:50:15;12.08;67.90
71291;DHT22;59073;51.994;4.448;2023-04-15T07:52:41;12.33;67.50
71291;DHT22;59073;51.994;4.448;2023-04-15T07:55:08;12.56;66.73
71291;DHT22;59073;51.994;4.448;2023-04-15T07:57:34;12.67;66.05
71291;DHT22;59073;51.994;4.448;2023-04-15T08:00:00;12.64;66.92
71291;DHT22;59073;51.994;4.448;2023-04-15T08:02:26;12.81;66.64
71291;DHT22;59073;51.994;4.448;2023-04-15T08:04:51;12.65;66.76
71291;DHT22;59073;51.994;4.448;2023-04-15T08:07:18;12.84;67.06
71291;DHT22;59073;51.994;4.448;2023-04-15T08:09:44;13.25;66.06
71291;DHT22;59073;51.994;4.448;2023-04-15T08:12:09;13.43;65.29
71291;DHT22;59073;51.994;4.448;2023-04-15T08:14:38;13.50;65.59
71291;DHT22;59073;51.994;4.448;2023-04-15T08:17:03;13.38;66.26
71291;DHT22;59073;51.994;4.448;2023-04-15T08:19:30;13.19;66.12
71291;DHT22;59073;51.994;4.448;2023-04-15T08:21:55;13.28;65.80
71291;DHT22;59073;51.994;4.448;2023-04-15T08:24:21;13.56;65.77
71291;DHT22;59073;51.994;4.448;2023-04-15T08:26:47;13.38;66.07
71291;DHT22;59073;51.994;4.448;2023-04-15T08:29:12;13.56;65.11
71291;DHT22;59073;51.994;4.448;2023-04-15T08:31:38;13.48;65.05
71291;DHT22;59073;51.994;4.448;2023-04-15T08:34:03;13.14;65.73
71291;DHT22;59073;51.994;4.448;2023-04-15T08:36:29;13.31;64.25
71291;DHT22;59073;51.994;4.448;2023-04-15T08:38:55;13.45;63.91
71291;DHT22;59073;51.994;4.448;2023-04-15T08:41:22;13.15;64.50
71291;DHT22;59073;51.994;4.448;2023-04-15T08:43:52;13.11;64.47
71291;DHT22;59073;51.994;4.448;2023-04-15T08:46:19;13.28;64.41
71291;DHT22;59073;51.994;4.448;2023-04-15T08:48:47;13.35;64.45
71291;DHT22;59073;51.994;4.448;2023-04-15T08:51:12;13.49;63.72
71291;DHT22;59073;51.994;4.448;2023-04-15T08:53:42;13.49;64.13
71291;DHT22;59073;51.994;4.448;2023-04-15T08:56:08;13.67;62.95
71291;DHT22;59073;51.994;4.448;2023-04-15T08:58:35;13.21;64.92
71291;DHT22;59073;51.994;4.448;2023-04-15T09:01:01;13.07;64.30
71291;DHT22;59073;51.994;4.448;2023-04-15T09:03:27;13.36;63.78
71291;DHT22;59073;51.994;4.448;2023-04-15T09:05:53;13.63;62.24
71291;DHT22;59073;51.994;4.448;2023-04-15T09:08:19;13.79;62.95
71291;DHT22;59073;51.994;4.448;2023-04-15T09:10:46;14.04;61.50
71291;DHT22;59073;51.994;4.448;2023-04-15T09:13:12;14.09;60.47
71291;DHT22;59073;51.994;4.448;2023-04-15T09:15:37;13.99;61.52
71291;DHT22;59073;51.994;4.448;2023-04-15T09:18:03;13.94;61.42
71291;DHT22;59073;51.994;4.448;2023-04-15T09:20:38;14.04;60.68
71291;DHT22;59073;51.994;4.448;2023-04-15T09:23:11;14.07;61.65
71291;DHT22;59073;51.994;4.448;2023-04-15T09:25:39;13.67;62.01
71291;DHT22;59073;51.994;4.448;2023-04-15T09:28:06;13.83;60.65
71291;DHT22;59073;51.994;4.448;2023-04-15T09:30:32;13.79;59.53
71291;DHT22;59073;51.994;4.448;2023-04-15T09:33:00;13.60;60.35
71291;DHT22;59073;51.994;4.448;2023-04-15T09:35:33;14.18;61.35
71291;DHT22;59073;51.994;4.448;2023-04-15T09:38:03;14.35;58.09
71291;DHT22;59073;51.994;4.448;2023-04-15T09:40:40;14.03;59.51
71291;DHT22;59073;51.994;4.448;2023-04-15T09:43:07;13.93;58.46
71291;DHT22;59073;51.994;4.448;2023-04-15T09:45:35;14.17;58.39
71291;DHT22;59073;51.994;4.448;2023-04-15T09:48:21;14.10;58.76
71291;DHT22;59073;51.994;4.448;2023-04-15T09:50:50;13.96;55.78
71291;DHT22;59073;51.994;4.448;2023-04-15T09:53:20;14.22;56.54
71291;DHT22;59073;51.994;4.448;2023-04-15T09:55:50;14.04;53.83
71291;DHT22;59073;51.994;4.448;2023-04-15T09:58:22;13.65;54.32
71291;DHT22;59073;51.994;4.448;2023-04-15T10:00:50;13.87;55.67
71291;DHT22;59073;51.994;4.448;2023-04-15T10:05:52;14.27;53.73
71291;DHT22;59073;51.994;4.448;2023-04-15T10:08:19;13.84;52.91
71291;DHT22;59073;51.994;4.448;2023-04-15T10:10:47;14.22;54.78
71291;DHT22;59073;51.994;4.448;2023-04-15T10:13:17;14.18;55.63
71291;DHT22;59073;51.994;4.448;2023-04-15T10:15:44;14.35;54.42
71291;DHT22;59073;51.994;4.448;2023-04-15T10:18:18;14.55;54.67
71291;DHT22;59073;51.994;4.448;2023-04-15T10:20:47;14.35;56.76
71291;DHT22;59073;51.994;4.448;2023-04-15T10:23:14;14.42;56.12
71291;DHT22;59073;51.994;4.448;2023-04-15T10:25:39;13.80;55.78
71291;DHT22;59073;51.994;4.448;2023-04-15T10:28:08;14.25;55.13
71291;DHT22;59073;51.994;4.448;2023-04-15T10:30:35;14.44;54.74
71291;DHT22;59073;51.994;4.448;2023-04-15T10:33:02;14.35;56.11
71291;DHT22;59073;51.994;4.448;2023-04-15T10:35:30;14.22;51.54
71291;DHT22;59073;51.994;4.448;2023-04-15T10:37:56;14.20;51.24
71291;DHT22;59073;51.994;4.448;2023-04-15T10:40:26;14.16;52.90
71291;DHT22;59073;51.994;4.448;2023-04-15T10:42:53;14.04;51.69
71291;DHT22;59073;51.994;4.448;2023-04-15T10:45:19;14.46;54.12
71291;DHT22;59073;51.994;4.448;2023-04-15T10:47:45;14.92;55.20
71291;DHT22;59073;51.994;4.448;2023-04-15T10:50:10;15.16;51.73
71291;DHT22;59073;51.994;4.448;2023-04-15T10:52:39;14.42;51.05
71291;DHT22;59073;51.994;4.448;2023-04-15T10:57:37;14.51;54.26
71291;DHT22;59073;51.994;4.448;2023-04-15T11:02:51;14.46;54.83
71291;DHT22;59073;51.994;4.448;2023-04-15T11:05:18;14.72;54.76
71291;DHT22;59073;51.994;4.448;2023-04-15T11:07:47;14.98;56.16
71291;DHT22;59073;51.994;4.448;2023-04-15T11:12:40;15.19;54.47
71291;DHT22;59073;51.994;4.448;2023-04-15T11:15:34;15.14;53.15
71291;DHT22;59073;51.994;4.448;2023-04-15T11:18:22;14.35;53.91
71291;DHT22;59073;51.994;4.448;2023-04-15T11:21:02;14.32;54.83
71291;DHT22;59073;51.994;4.448;2023-04-15T11:23:31;14.46;53.92
71291;DHT22;59073;51.994;4.448;2023-04-15T11:25:59;14.72;53.36
71291;DHT22;59073;51.994;4.448;2023-04-15T11:28:26;14.72;54.32
71291;DHT22;59073;51.994;4.448;2023-04-15T11:30:52;14.82;54.11
71291;DHT22;59073;51.994;4.448;2023-04-15T11:33:20;14.72;51.97
71291;DHT22;59073;51.994;4.448;2023-04-15T11:35:46;14.61;55.17
71291;DHT22;59073;51.994;4.448;2023-04-15T11:38:12;14.48;56.67
71291;DHT22;59073;51.994;4.448;2023-04-15T11:40:39;14.41;55.12
71291;DHT22;59073;51.994;4.448;2023-04-15T11:43:08;14.59;55.20
71291;DHT22;59073;51.994;4.448;2023-04-15T11:45:48;14.49;54.19
71291;DHT22;59073;51.994;4.448;2023-04-15T11:48:14;14.76;56.45
71291;DHT22;59073;51.994;4.448;2023-04-15T11:50:40;14.57;55.18
71291;DHT22;59073;51.994;4.448;2023-04-15T11:53:07;15.14;54.66
71291;DHT22;59073;51.994;4.448;2023-04-15T11:55:47;15.00;54.51
71291;DHT22;59073;51.994;4.448;2023-04-15T11:58:24;15.24;54.31
71291;DHT22;59073;51.994;4.448;2023-04-15T12:00:53;15.29;53.95
71291;DHT22;59073;51.994;4.448;2023-04-15T12:03:30;15.78;55.40
71291;DHT22;59073;51.994;4.448;2023-04-15T12:08:56;15.04;54.86
71291;DHT22;59073;51.994;4.448;2023-04-15T12:16:51;14.81;59.52
71291;DHT22;59073;51.994;4.448;2023-04-15T12:21:49;14.35;60.75
71291;DHT22;59073;51.994;4.448;2023-04-15T12:24:19;14.68;62.15
71291;DHT22;59073;51.994;4.448;2023-04-15T12:26:53;14.57;60.84
71291;DHT22;59073;51.994;4.448;2023-04-15T12:29:23;14.40;61.35
71291;DHT22;59073;51.994;4.448;2023-04-15T12:31:51;14.14;61.79
71291;DHT22;59073;51.994;4.448;2023-04-15T12:34:18;13.93;61.52
71291;DHT22;59073;51.994;4.448;2023-04-15T12:36:44;14.16;61.91
71291;DHT22;59073;51.994;4.448;2023-04-15T12:39:09;14.22;61.23
71291;DHT22;59073;51.994;4.448;2023-04-15T12:41:35;14.61;63.65
71291;DHT22;59073;51.994;4.448;2023-04-15T12:44:00;14.55;61.29
71291;DHT22;59073;51.994;4.448;2023-04-15T12:46:26;14.62;61.19
71291;DHT22;59073;51.994;4.448;2023-04-15T12:48:51;14.71;63.65
71291;DHT22;59073;51.994;4.448;2023-04-15T12:51:17;14.31;63.43
71291;DHT22;59073;51.994;4.448;2023-04-15T12:53:43;14.44;61.31
71291;DHT22;59073;51.994;4.448;2023-04-15T12:56:08;14.32;64.12
71291;DHT22;59073;51.994;4.448;2023-04-15T12:58:35;14.10;62.19
71291;DHT22;59073;51.994;4.448;2023-04-15T13:01:00;13.96;62.57
71291;DHT22;59073;51.994;4.448;2023-04-15T13:03:26;13.79;63.74
71291;DHT22;59073;51.994;4.448;2023-04-15T13:05:51;13.74;62.54
71291;DHT22;59073;51.994;4.448;2023-04-15T13:08:17;13.72;65.85
71291;DHT22;59073;51.994;4.448;2023-04-15T13:10:43;13.56;64.79
71291;DHT22;59073;51.994;4.448;2023-04-15T13:13:08;13.73;64.26
71291;DHT22;59073;51.994;4.448;2023-04-15T13:15:34;13.63;64.08
71291;DHT22;59073;51.994;4.448;2023-04-15T13:17:59;13.50;65.59
71291;DHT22;59073;51.994;4.448;2023-04-15T13:20:25;13.45;64.33
71291;DHT22;59073;51.994;4.448;2023-04-15T13:22:53;13.56;66.75
71291;DHT22;59073;51.994;4.448;2023-04-15T13:25:19;13.60;67.21
71291;DHT22;59073;51.994;4.448;2023-04-15T13:27:44;13.83;64.07
71291;DHT22;59073;51.994;4.448;2023-04-15T13:30:11;13.62;65.07
71291;DHT22;59073;51.994;4.448;2023-04-15T13:32:36;13.48;65.92
71291;DHT22;59073;51.994;4.448;2023-04-15T13:35:02;13.32;64.75
71291;DHT22;59073;51.994;4.448;2023-04-15T13:37:28;13.14;65.84
71291;DHT22;59073;51.994;4.448;2023-04-15T13:39:55;13.15;68.53
71291;DHT22;59073;51.994;4.448;2023-04-15T13:42:21;13.19;66.87
71291;DHT22;59073;51.994;4.448;2023-04-15T13:44:48;13.31;66.06
71291;DHT22;59073;51.994;4.448;2023-04-15T13:47:14;13.50;65.93
71291;DHT22;59073;51.994;4.448;2023-04-15T13:49:40;13.38;64.65
71291;DHT22;59073;51.994;4.448;2023-04-15T13:52:06;13.48;63.59
71291;DHT22;59073;51.994;4.448;2023-04-15T13:54:31;13.19;63.80
71291;DHT22;59073;51.994;4.448;2023-04-15T13:56:56;13.11;64.83
71291;DHT22;59073;51.994;4.448;2023-04-15T13:59:22;13.16;65.73
71291;DHT22;59073;51.994;4.448;2023-04-15T14:01:48;13.15;64.57
71291;DHT22;59073;51.994;4.448;2023-04-15T14:04:14;13.05;66.30
71291;DHT22;59073;51.994;4.448;2023-04-15T14:06:39;12.98;66.23
71291;DHT22;59073;51.994;4.448;2023-04-15T14:09:05;13.11;66.98
71291;DHT22;59073;51.994;4.448;2023-04-15T14:11:30;13.26;66.75
71291;DHT22;59073;51.994;4.448;2023-04-15T14:13:56;13.02;66.81
71291;DHT22;59073;51.994;4.448;2023-04-15T14:16:21;13.08;67.27
71291;DHT22;59073;51.994;4.448;2023-04-15T14:18:47;13.00;66.25
71291;DHT22;59073;51.994;4.448;2023-04-15T14:21:12;13.15;64.79
71291;DHT22;59073;51.994;4.448;2023-04-15T14:23:38;12.81;66.05
71291;DHT22;59073;51.994;4.448;2023-04-15T14:26:03;12.74;67.23
71291;DHT22;59073;51.994;4.448;2023-04-15T14:28:29;12.90;65.98
71291;DHT22;59073;51.994;4.448;2023-04-15T14:30:54;13.05;67.97
71291;DHT22;59073;51.994;4.448;2023-04-15T14:33:19;12.98;67.86
71291;DHT22;59073;51.994;4.448;2023-04-15T14:35:45;13.00;67.84
71291;DHT22;59073;51.994;4.448;2023-04-15T14:38:10;12.85;67.78
71291;DHT22;59073;51.994;4.448;2023-04-15T14:40:36;12.74;67.93
71291;DHT22;59073;51.994;4.448;2023-04-15T14:43:02;12.59;68.21
71291;DHT22;59073;51.994;4.448;2023-04-15T14:45:28;12.41;68.19
71291;DHT22;59073;51.994;4.448;2023-04-15T14:47:55;12.63;69.42
71291;DHT22;59073;51.994;4.448;2023-04-15T14:50:20;12.50;68.82
71291;DHT22;59073;51.994;4.448;2023-04-15T14:52:46;12.33;70.33
71291;DHT22;59073;51.994;4.448;2023-04-15T14:55:12;12.26;69.21
71291;DHT22;59073;51.994;4.448;2023-04-15T14:57:39;12.51;69.58
71291;DHT22;59073;51.994;4.448;2023-04-15T15:00:05;12.67;68.44
71291;DHT22;59073;51.994;4.448;2023-04-15T15:02:34;12.28;69.96
71291;DHT22;59073;51.994;4.448;2023-04-15T15:05:01;12.43;71.48
71291;DHT22;59073;51.994;4.448;2023-04-15T15:07:26;12.43;70.56
71291;DHT22;59073;51.994;4.448;2023-04-15T15:09:53;12.30;70.89
71291;DHT22;59073;51.994;4.448;2023-04-15T15:12:19;12.30;71.40
71291;DHT22;59073;51.994;4.448;2023-04-15T15:14:46;12.15;71.54
71291;DHT22;59073;51.994;4.448;2023-04-15T15:17:11;12.47;70.62
71291;DHT22;59073;51.994;4.448;2023-04-15T15:19:36;12.12;70.31
71291;DHT22;59073;51.994;4.448;2023-04-15T15:22:02;12.06;71.02
71291;DHT22;59073;51.994;4.448;2023-04-15T15:24:28;12.25;71.35
71291;DHT22;59073;51.994;4.448;2023-04-15T15:26:53;12.37;70.75
71291;DHT22;59073;51.994;4.448;2023-04-15T15:29:19;12.22;70.71
71291;DHT22;59073;51.994;4.448;2023-04-15T15:31:44;11.99;71.68
71291;DHT22;59073;51.994;4.448;2023-04-15T15:34:10;12.02;70.77
71291;DHT22;59073;51.994;4.448;2023-04-15T15:36:35;11.92;71.63
71291;DHT22;59073;51.994;4.448;2023-04-15T15:39:01;11.86;71.70
71291;DHT22;59073;51.994;4.448;2023-04-15T15:41:26;11.75;71.36
71291;DHT22;59073;51.994;4.448;2023-04-15T15:43:54;11.75;70.68
71291;DHT22;59073;51.994;4.448;2023-04-15T15:46:20;11.67;71.41
71291;DHT22;59073;51.994;4.448;2023-04-15T15:48:45;11.57;70.95
71291;DHT22;59073;51.994;4.448;2023-04-15T15:51:11;11.48;71.15